createdAt,value
2017-10-11T00:02:07.365Z,86.41
2017-10-11T00:04:34.996Z,86.42
2017-10-11T00:07:02.585Z,86.44
2017-10-11T00:09:30.197Z,86.15
2017-10-11T00:11:57.826Z,86.38
2017-10-11T00:14:25.463Z,86.45
2017-10-11T00:16:53.057Z,86.30
2017-10-11T00:19:20.651Z,86.19
2017-10-11T00:21:48.266Z,86.25
2017-10-11T00:24:15.861Z,86.31
2017-10-11T00:26:43.530Z,86.25
2017-10-11T00:29:11.130Z,86.08
2017-10-11T00:31:39.014Z,86.07
2017-10-11T00:34:06.641Z,85.97
2017-10-11T00:36:34.233Z,86.02
2017-10-11T00:39:01.861Z,85.88
2017-10-11T00:41:29.437Z,85.75
2017-10-11T00:43:57.034Z,85.78
2017-10-11T00:46:24.668Z,85.71
2017-10-11T00:48:52.257Z,85.91
2017-10-11T00:51:20.201Z,85.80
2017-10-11T00:53:47.794Z,85.86
2017-10-11T00:56:15.734Z,85.84
2017-10-11T00:58:43.368Z,85.87
2017-10-11T01:01:10.967Z,85.85
2017-10-11T01:03:38.597Z,85.79
2017-10-11T01:06:06.182Z,85.86
2017-10-11T01:08:33.785Z,85.66
2017-10-11T01:11:01.399Z,85.71
2017-10-11T01:13:28.980Z,85.77
2017-10-11T01:15:56.617Z,85.61
2017-10-11T01:18:24.197Z,85.62
2017-10-11T01:20:51.790Z,85.66
2017-10-11T01:23:19.406Z,85.62
2017-10-11T01:25:46.990Z,85.65
2017-10-11T01:28:14.617Z,85.65
2017-10-11T01:30:42.230Z,85.58
2017-10-11T01:33:09.809Z,85.56
2017-10-11T01:35:37.422Z,85.42
2017-10-11T01:38:05.014Z,85.50
2017-10-11T01:40:32.692Z,85.46
2017-10-11T01:43:00.300Z,85.28
2017-10-11T01:45:27.906Z,85.52
2017-10-11T01:47:55.522Z,85.37
2017-10-11T01:50:23.111Z,85.41
2017-10-11T01:52:50.737Z,85.53
2017-10-11T01:55:18.338Z,85.54
2017-10-11T01:57:46.181Z,85.62
2017-10-11T02:00:13.796Z,85.48
2017-10-11T02:02:41.391Z,85.46
2017-10-11T02:05:09.024Z,85.52
2017-10-11T02:07:36.646Z,85.66
2017-10-11T02:10:04.242Z,85.64
2017-10-11T02:12:31.847Z,86.15
2017-10-11T02:14:59.434Z,87.05
2017-10-11T02:17:27.055Z,87.98
2017-10-11T02:19:54.653Z,88.50
2017-10-11T02:22:22.254Z,88.82
2017-10-11T02:24:49.862Z,89.28
2017-10-11T02:27:17.734Z,89.48
2017-10-11T02:29:45.361Z,89.73
2017-10-11T02:32:12.988Z,89.84
2017-10-11T02:34:40.592Z,90.08
2017-10-11T02:37:08.485Z,90.15
2017-10-11T02:39:36.074Z,90.21
2017-10-11T02:42:04.018Z,90.04
2017-10-11T02:44:31.601Z,90.42
2017-10-11T02:46:59.193Z,90.36
2017-10-11T02:49:26.816Z,90.32
2017-10-11T02:51:54.406Z,90.43
2017-10-11T02:54:22.037Z,90.49
2017-10-11T02:56:49.653Z,90.48
2017-10-11T02:59:17.248Z,90.43
2017-10-11T03:01:44.861Z,90.49
2017-10-11T03:04:12.475Z,90.45
2017-10-11T03:06:40.101Z,90.29
2017-10-11T03:09:07.698Z,90.21
2017-10-11T03:11:35.565Z,90.31
2017-10-11T03:14:03.192Z,90.21
2017-10-11T03:16:30.807Z,90.17
2017-10-11T03:18:58.761Z,90.10
2017-10-11T03:21:26.624Z,90.03
2017-10-11T03:23:54.223Z,90.08
2017-10-11T03:26:21.845Z,90.15
2017-10-11T03:28:49.433Z,90.08
2017-10-11T03:31:17.065Z,89.83
2017-10-11T03:33:44.664Z,89.75
2017-10-11T03:36:12.280Z,89.72
2017-10-11T03:38:39.901Z,89.53
2017-10-11T03:41:07.486Z,89.60
2017-10-11T03:43:35.109Z,89.57
2017-10-11T03:46:02.714Z,89.51
2017-10-11T03:48:30.309Z,89.50
2017-10-11T03:50:57.930Z,89.51
2017-10-11T03:53:25.545Z,89.70
2017-10-11T03:55:53.192Z,89.62
2017-10-11T03:58:20.785Z,89.62
2017-10-11T04:00:48.381Z,89.47
2017-10-11T04:03:16.039Z,89.42
2017-10-11T04:05:43.629Z,89.45
2017-10-11T04:08:11.263Z,89.22
2017-10-11T04:10:38.851Z,89.21
2017-10-11T04:13:06.732Z,89.32
2017-10-11T04:15:34.347Z,89.29
2017-10-11T04:18:01.937Z,89.23
2017-10-11T04:20:29.553Z,89.19
2017-10-11T04:22:57.485Z,88.95
2017-10-11T04:25:25.095Z,88.83
2017-10-11T04:27:52.704Z,88.62
2017-10-11T04:30:20.293Z,88.65
2017-10-11T04:32:47.920Z,88.51
2017-10-11T04:35:15.509Z,88.58
2017-10-11T04:37:43.098Z,88.57
2017-10-11T04:40:10.736Z,88.28
2017-10-11T04:42:38.589Z,88.41
2017-10-11T04:45:06.211Z,88.75
2017-10-11T04:47:33.821Z,88.78
2017-10-11T04:50:01.417Z,88.65
2017-10-11T04:52:29.036Z,88.69
2017-10-11T04:54:56.617Z,88.69
2017-10-11T04:57:24.244Z,88.79
2017-10-11T04:59:51.823Z,88.57
2017-10-11T05:02:19.401Z,88.93
2017-10-11T05:04:47.379Z,89.11
2017-10-11T05:07:15.339Z,89.05
2017-10-11T05:09:42.917Z,89.38
2017-10-11T05:12:10.536Z,89.27
2017-10-11T05:14:38.137Z,89.28
2017-10-11T05:17:05.722Z,89.39
2017-10-11T05:19:33.641Z,89.10
2017-10-11T05:22:01.232Z,89.30
2017-10-11T05:24:29.274Z,89.40
2017-10-11T05:26:56.880Z,89.61
2017-10-11T05:29:24.476Z,89.68
2017-10-11T05:31:52.109Z,89.74
2017-10-11T05:34:19.693Z,90.02
2017-10-11T05:36:47.302Z,89.91
2017-10-11T05:39:14.988Z,90.04
2017-10-11T05:41:42.590Z,89.89
2017-10-11T05:44:10.216Z,89.87
2017-10-11T05:46:37.797Z,89.88
2017-10-11T05:49:05.393Z,89.79
2017-10-11T05:51:33.009Z,89.66
2017-10-11T05:54:00.610Z,89.60
2017-10-11T05:56:52.499Z,89.15
2017-10-11T05:59:21.720Z,89.14
2017-10-11T06:01:49.345Z,89.16
2017-10-11T06:04:17.377Z,89.22
2017-10-11T06:06:45.085Z,89.19
2017-10-11T06:09:13.088Z,89.26
2017-10-11T06:11:40.726Z,89.16
2017-10-11T06:14:08.852Z,88.96
2017-10-11T06:16:36.766Z,88.90
2017-10-11T06:19:04.382Z,88.84
2017-10-11T06:21:32.002Z,88.77
2017-10-11T06:23:59.617Z,88.64
2017-10-11T06:26:27.209Z,87.79
2017-10-11T06:28:55.135Z,88.06
2017-10-11T06:31:23.001Z,88.21
2017-10-11T06:33:50.585Z,87.80
2017-10-11T06:36:18.201Z,87.51
2017-10-11T06:38:45.797Z,87.52
2017-10-11T06:41:13.867Z,87.22
2017-10-11T06:43:41.484Z,87.05
2017-10-11T06:46:09.390Z,86.79
2017-10-11T06:48:37.073Z,86.68
2017-10-11T06:51:04.671Z,86.24
2017-10-11T06:53:32.293Z,86.15
2017-10-11T06:56:01.070Z,85.92
2017-10-11T06:58:28.652Z,85.63
2017-10-11T07:00:56.598Z,85.57
2017-10-11T07:03:24.229Z,85.19
2017-10-11T07:05:51.860Z,84.97
2017-10-11T07:08:19.456Z,84.92
2017-10-11T07:10:47.048Z,84.97
2017-10-11T07:13:15.117Z,84.73
2017-10-11T07:15:42.698Z,85.04
2017-10-11T07:18:10.326Z,85.29
2017-10-11T07:20:38.050Z,84.85
2017-10-11T07:23:05.977Z,84.83
2017-10-11T07:25:33.593Z,84.54
2017-10-11T07:28:01.193Z,84.66
2017-10-11T07:30:28.833Z,84.66
2017-10-11T07:32:56.421Z,84.45
2017-10-11T07:35:24.014Z,84.66
2017-10-11T07:37:51.633Z,84.19
2017-10-11T07:40:19.225Z,83.80
2017-10-11T07:42:46.846Z,83.39
2017-10-11T07:45:14.757Z,83.56
2017-10-11T07:47:42.343Z,83.42
2017-10-11T07:50:09.963Z,83.29
2017-10-11T07:52:37.540Z,83.14
2017-10-11T07:55:05.191Z,82.94
2017-10-11T07:57:32.803Z,82.62
2017-10-11T08:00:00.391Z,82.56
2017-10-11T08:02:28.005Z,82.27
2017-10-11T08:04:55.874Z,81.58
2017-10-11T08:07:23.805Z,81.85
2017-10-11T08:09:51.778Z,81.70
2017-10-11T08:12:19.373Z,81.30
2017-10-11T08:14:46.993Z,81.12
2017-10-11T08:17:14.604Z,81.30
2017-10-11T08:19:42.277Z,81.13
2017-10-11T08:22:09.913Z,81.24
2017-10-11T08:24:37.523Z,80.84
2017-10-11T08:27:05.141Z,80.64
2017-10-11T08:29:32.737Z,80.66
2017-10-11T08:32:00.746Z,80.21
2017-10-11T08:34:28.341Z,79.80
2017-10-11T08:36:55.932Z,79.45
2017-10-11T08:39:23.544Z,78.19
2017-10-11T08:41:51.195Z,77.68
2017-10-11T08:44:18.824Z,77.85
2017-10-11T08:46:46.437Z,77.22
2017-10-11T08:49:14.039Z,77.11
2017-10-11T08:51:41.660Z,76.77
2017-10-11T08:54:10.332Z,74.88
2017-10-11T08:56:37.984Z,73.57
2017-10-11T08:59:06.035Z,74.85
2017-10-11T09:01:33.626Z,74.63
2017-10-11T09:04:01.261Z,75.34
2017-10-11T09:06:28.849Z,75.60
2017-10-11T09:08:56.477Z,75.23
2017-10-11T09:11:24.073Z,75.47
2017-10-11T09:13:51.657Z,75.96
2017-10-11T09:16:19.311Z,76.23
2017-10-11T09:18:46.905Z,76.01
2017-10-11T09:21:14.551Z,76.19
2017-10-11T09:23:42.148Z,76.42
2017-10-11T09:26:09.744Z,76.41
2017-10-11T09:28:37.353Z,76.20
2017-10-11T09:31:04.941Z,76.27
2017-10-11T09:33:32.564Z,76.31
2017-10-11T09:36:00.154Z,76.38
2017-10-11T09:38:27.757Z,76.31
2017-10-11T09:40:55.369Z,76.20
2017-10-11T09:43:22.967Z,76.28
2017-10-11T09:45:50.588Z,76.37
2017-10-11T09:48:18.164Z,76.38
2017-10-11T09:50:45.776Z,76.79
2017-10-11T09:53:13.389Z,77.49
2017-10-11T09:55:41.310Z,77.60
2017-10-11T09:58:09.370Z,77.83
2017-10-11T10:00:36.952Z,77.80
2017-10-11T10:03:04.551Z,77.92
2017-10-11T10:05:32.173Z,77.86
2017-10-11T10:07:59.783Z,77.61
2017-10-11T10:10:27.736Z,77.35
2017-10-11T10:12:55.655Z,76.83
2017-10-11T10:15:23.232Z,77.37
2017-10-11T10:17:50.857Z,77.21
2017-10-11T10:20:18.440Z,77.38
2017-10-11T10:22:46.091Z,77.48
2017-10-11T10:25:13.963Z,77.92
2017-10-11T10:27:41.548Z,78.09
2017-10-11T10:30:09.493Z,78.09
2017-10-11T10:32:37.093Z,78.23
2017-10-11T10:35:05.129Z,78.46
2017-10-11T10:37:32.738Z,78.90
2017-10-11T10:40:00.332Z,79.65
2017-10-11T10:42:28.222Z,79.65
2017-10-11T10:44:55.829Z,79.28
2017-10-11T10:47:23.453Z,80.05
2017-10-11T10:49:51.310Z,81.41
2017-10-11T10:52:18.901Z,82.72
2017-10-11T10:54:46.516Z,84.17
2017-10-11T10:57:14.269Z,84.62
2017-10-11T10:59:41.892Z,85.59
2017-10-11T11:02:09.510Z,86.41
2017-10-11T11:04:37.105Z,86.38
2017-10-11T11:07:04.726Z,86.44
2017-10-11T11:09:32.316Z,86.62
2017-10-11T11:11:59.961Z,86.62
2017-10-11T11:14:27.546Z,87.48
2017-10-11T11:16:55.147Z,87.48
2017-10-11T11:19:22.751Z,87.19
2017-10-11T11:21:50.366Z,87.36
2017-10-11T11:24:18.292Z,87.35
2017-10-11T11:26:45.883Z,86.63
2017-10-11T11:29:13.471Z,86.88
2017-10-11T11:31:41.379Z,86.48
2017-10-11T11:34:08.986Z,86.72
2017-10-11T11:36:36.625Z,87.30
2017-10-11T11:39:04.213Z,87.35
2017-10-11T11:41:31.805Z,87.33
2017-10-11T11:43:59.421Z,87.36
2017-10-11T11:46:27.022Z,88.25
2017-10-11T11:48:54.645Z,88.01
2017-10-11T11:51:22.241Z,87.89
2017-10-11T11:53:50.141Z,87.52
2017-10-11T11:56:17.756Z,87.67
2017-10-11T11:58:45.358Z,87.32
2017-10-11T12:01:12.977Z,87.45
2017-10-11T12:03:40.564Z,87.03
2017-10-11T12:06:08.146Z,86.93
2017-10-11T12:08:35.759Z,86.69
2017-10-11T12:11:03.384Z,86.57
2017-10-11T12:13:31.017Z,86.63
2017-10-11T12:15:58.614Z,86.44
2017-10-11T12:18:26.208Z,86.02
2017-10-11T12:20:53.834Z,85.96
2017-10-11T12:23:21.507Z,86.15
2017-10-11T12:25:49.097Z,86.85
2017-10-11T12:28:17.024Z,86.08
2017-10-11T12:30:44.664Z,85.87
2017-10-11T12:33:12.305Z,85.22
2017-10-11T12:35:39.949Z,84.79
2017-10-11T12:38:07.553Z,84.64
2017-10-11T12:40:35.140Z,84.07
2017-10-11T12:43:02.769Z,84.18
2017-10-11T12:45:30.357Z,83.81
2017-10-11T12:47:57.972Z,83.97
2017-10-11T12:50:25.562Z,83.50
2017-10-11T12:52:53.165Z,83.40
2017-10-11T12:55:20.798Z,82.29
2017-10-11T12:57:48.377Z,81.38
2017-10-11T13:00:16.018Z,80.66
2017-10-11T13:02:43.614Z,80.04
2017-10-11T13:05:11.210Z,79.79
2017-10-11T13:07:39.116Z,79.19
2017-10-11T13:10:06.704Z,78.83
2017-10-11T13:12:34.418Z,78.37
2017-10-11T13:15:02.009Z,77.64
2017-10-11T13:17:29.707Z,77.85
2017-10-11T13:19:57.338Z,77.26
2017-10-11T13:22:25.076Z,76.92
2017-10-11T13:24:52.857Z,77.02
2017-10-11T13:27:20.452Z,77.11
2017-10-11T13:29:48.042Z,77.21
2017-10-11T13:32:15.678Z,77.11
2017-10-11T13:34:43.262Z,77.18
2017-10-11T13:37:10.918Z,77.50
2017-10-11T13:39:38.497Z,77.26
2017-10-11T13:42:07.249Z,76.95
2017-10-11T13:44:34.986Z,77.34
2017-10-11T13:47:02.601Z,77.35
2017-10-11T13:49:30.236Z,77.96
2017-10-11T13:51:58.069Z,78.38
2017-10-11T13:54:25.680Z,79.77
2017-10-11T13:56:53.932Z,80.90
2017-10-11T13:59:21.519Z,81.10
2017-10-11T14:01:49.153Z,81.43
2017-10-11T14:04:16.739Z,82.07
2017-10-11T14:06:44.334Z,81.35
2017-10-11T14:09:11.954Z,81.07
2017-10-11T14:11:39.541Z,80.90
2017-10-11T14:14:07.178Z,81.04
2017-10-11T14:16:34.813Z,81.25
2017-10-11T14:19:02.410Z,81.31
2017-10-11T14:21:30.033Z,81.35
2017-10-11T14:23:57.629Z,81.32
2017-10-11T14:26:25.274Z,81.41
2017-10-11T14:28:52.883Z,81.34
2017-10-11T14:31:20.481Z,81.46
2017-10-11T14:33:48.559Z,81.30
2017-10-11T14:36:17.646Z,81.24
2017-10-11T14:38:45.280Z,80.98
2017-10-11T14:41:12.958Z,80.96
2017-10-11T14:43:40.837Z,79.78
2017-10-11T14:46:08.463Z,80.06
2017-10-11T14:48:36.070Z,79.90
2017-10-11T14:51:03.702Z,79.34
2017-10-11T14:53:31.606Z,79.45
2017-10-11T14:55:59.206Z,78.88
2017-10-11T14:58:27.232Z,78.77
2017-10-11T15:00:54.890Z,78.96
2017-10-11T15:03:22.530Z,78.62
2017-10-11T15:05:50.149Z,78.53
2017-10-11T15:08:17.748Z,78.29
2017-10-11T15:10:45.370Z,77.96
2017-10-11T15:13:12.983Z,78.13
2017-10-11T15:15:40.611Z,78.11
2017-10-11T15:18:08.206Z,77.81
2017-10-11T15:20:35.852Z,78.03
2017-10-11T15:23:03.468Z,77.75
2017-10-11T15:25:31.073Z,77.68
2017-10-11T15:27:58.711Z,77.80
2017-10-11T15:30:26.308Z,77.40
2017-10-11T15:32:53.989Z,77.30
2017-10-11T15:35:21.633Z,77.23
2017-10-11T15:37:49.261Z,77.18
2017-10-11T15:40:16.897Z,77.29
2017-10-11T15:42:44.569Z,77.02
2017-10-11T15:45:12.161Z,77.27
2017-10-11T15:47:39.790Z,77.48
2017-10-11T15:50:07.820Z,77.57
2017-10-11T15:52:35.457Z,77.06
2017-10-11T15:55:03.085Z,77.18
2017-10-11T15:57:30.935Z,76.63
2017-10-11T15:59:58.556Z,76.83
2017-10-11T16:02:26.148Z,76.52
2017-10-11T16:04:53.792Z,76.85
2017-10-11T16:07:21.689Z,76.78
2017-10-11T16:09:49.271Z,76.71
2017-10-11T16:12:16.920Z,76.45
2017-10-11T16:14:44.524Z,76.61
2017-10-11T16:17:12.431Z,76.44
2017-10-11T16:19:40.072Z,76.34
2017-10-11T16:22:07.692Z,76.27
2017-10-11T16:24:35.637Z,76.08
2017-10-11T16:27:03.223Z,76.04
2017-10-11T16:29:30.869Z,75.63
2017-10-11T16:31:58.461Z,76.10
2017-10-11T16:34:26.410Z,76.27
2017-10-11T16:36:54.040Z,76.04
2017-10-11T16:39:21.929Z,75.99
2017-10-11T16:41:49.555Z,76.05
2017-10-11T16:44:17.156Z,75.92
2017-10-11T16:46:44.741Z,76.24
2017-10-11T16:49:12.371Z,76.07
2017-10-11T16:51:40.064Z,76.20
2017-10-11T16:56:56.200Z,76.11
2017-10-11T16:59:23.884Z,76.16
2017-10-11T17:01:51.474Z,76.40
2017-10-11T17:04:19.320Z,76.40
2017-10-11T17:06:47.226Z,76.59
2017-10-11T17:09:14.822Z,76.68
2017-10-11T17:11:42.502Z,76.59
2017-10-11T17:14:10.116Z,76.72
2017-10-11T17:16:37.732Z,76.87
2017-10-11T17:19:05.359Z,76.83
2017-10-11T17:21:33.241Z,76.54
2017-10-11T17:24:01.372Z,76.39
2017-10-11T17:26:28.969Z,76.52
2017-10-11T17:28:56.553Z,76.62
2017-10-11T17:31:24.208Z,76.66
2017-10-11T17:33:51.789Z,76.66
2017-10-11T17:36:19.440Z,76.45
2017-10-11T17:38:47.025Z,76.76
2017-10-11T17:41:14.618Z,76.37
2017-10-11T17:43:42.245Z,76.48
2017-10-11T17:46:10.126Z,76.70
2017-10-11T17:48:37.792Z,76.77
2017-10-11T17:51:05.410Z,76.58
2017-10-11T17:53:33.029Z,76.50
2017-10-11T17:56:00.688Z,76.68
2017-10-11T17:58:28.859Z,76.73
2017-10-11T18:00:56.495Z,76.61
2017-10-11T18:03:24.081Z,76.72
2017-10-11T18:05:51.668Z,76.52
2017-10-11T18:08:19.291Z,76.81
2017-10-11T18:10:46.963Z,76.85
2017-10-11T18:13:14.599Z,76.69
2017-10-11T18:15:42.201Z,76.75
2017-10-11T18:18:09.854Z,76.71
2017-10-11T18:20:37.473Z,76.85
2017-10-11T18:23:05.385Z,76.85
2017-10-11T18:25:33.084Z,76.91
2017-10-11T18:28:00.718Z,76.73
2017-10-11T18:30:28.306Z,76.87
2017-10-11T18:32:56.184Z,77.04
2017-10-11T18:35:23.776Z,77.12
2017-10-11T18:37:52.220Z,77.06
2017-10-11T18:40:20.179Z,77.23
2017-10-11T18:42:48.017Z,77.15
2017-10-11T18:45:15.634Z,77.04
2017-10-11T18:47:43.234Z,77.26
2017-10-11T18:50:10.870Z,77.55
2017-10-11T18:52:38.791Z,77.78
2017-10-11T18:55:06.385Z,77.58
2017-10-11T18:57:34.031Z,77.60
2017-10-11T19:00:01.646Z,77.63
2017-10-11T19:02:29.765Z,77.50
2017-10-11T19:04:57.600Z,77.40
2017-10-11T19:07:25.207Z,77.28
2017-10-11T19:09:52.844Z,77.36
2017-10-11T19:12:20.464Z,77.36
2017-10-11T19:14:48.127Z,76.89
2017-10-11T19:17:15.733Z,76.86
2017-10-11T19:19:43.781Z,76.89
2017-10-11T19:22:11.399Z,76.70
2017-10-11T19:27:03.616Z,76.61
2017-10-11T19:29:31.229Z,76.79
2017-10-11T19:31:58.851Z,76.77
2017-10-11T19:34:26.490Z,76.58
2017-10-11T19:36:54.152Z,76.58
2017-10-11T19:39:21.853Z,76.61
2017-10-11T19:41:49.456Z,76.71
2017-10-11T19:44:17.071Z,76.56
2017-10-11T19:46:44.701Z,76.43
2017-10-11T19:49:12.308Z,76.50
2017-10-11T19:51:39.930Z,76.43
2017-10-11T19:54:07.589Z,76.40
2017-10-11T19:56:35.196Z,76.41
2017-10-11T19:59:02.806Z,76.34
2017-10-11T20:01:30.472Z,76.47
2017-10-11T20:03:58.125Z,76.42
2017-10-11T20:06:25.728Z,76.68
2017-10-11T20:08:53.398Z,76.87
2017-10-11T20:11:21.086Z,76.95
2017-10-11T20:13:48.736Z,76.87
2017-10-11T20:16:16.328Z,77.09
2017-10-11T20:18:44.093Z,77.14
2017-10-11T20:21:11.754Z,76.98
2017-10-11T20:23:39.404Z,77.08
2017-10-11T20:26:07.408Z,76.82
2017-10-11T20:28:35.021Z,76.96
2017-10-11T20:31:02.717Z,76.86
2017-10-11T20:33:30.469Z,77.37
2017-10-11T20:35:58.470Z,76.99
2017-10-11T20:38:26.096Z,76.89
2017-10-11T20:40:53.695Z,77.03
2017-10-11T20:43:21.873Z,76.49
2017-10-11T20:45:49.490Z,76.36
2017-10-11T20:48:17.103Z,76.20
2017-10-11T20:50:44.749Z,76.22
2017-10-11T20:53:12.350Z,76.12
2017-10-11T20:55:40.033Z,76.10
2017-10-11T20:58:07.628Z,75.99
2017-10-11T21:00:35.261Z,75.97
2017-10-11T21:03:02.908Z,75.80
2017-10-11T21:05:30.503Z,75.71
2017-10-11T21:07:58.173Z,75.27
2017-10-11T21:10:25.777Z,75.26
2017-10-11T21:12:53.418Z,75.30
2017-10-11T21:15:21.072Z,75.17
2017-10-11T21:17:48.682Z,74.98
2017-10-11T21:20:16.340Z,75.02
2017-10-11T21:22:43.948Z,74.91
2017-10-11T21:25:11.562Z,74.69
2017-10-11T21:27:39.260Z,74.08
2017-10-11T21:30:06.867Z,73.67
2017-10-11T21:32:34.508Z,73.48
2017-10-11T21:35:02.110Z,73.21
2017-10-11T21:37:29.734Z,72.49
2017-10-11T21:39:57.362Z,72.94
2017-10-11T21:42:24.967Z,72.25
2017-10-11T21:44:52.624Z,71.94
2017-10-11T21:47:20.224Z,71.80
2017-10-11T21:49:47.837Z,71.71
2017-10-11T21:52:15.473Z,71.58
2017-10-11T21:54:43.377Z,71.27
2017-10-11T21:57:11.039Z,70.97
2017-10-11T21:59:38.620Z,71.11
2017-10-11T22:02:06.295Z,70.88
2017-10-11T22:04:33.933Z,70.76
2017-10-11T22:07:01.530Z,70.62
2017-10-11T22:09:29.311Z,70.29
2017-10-11T22:11:56.918Z,70.53
2017-10-11T22:14:24.524Z,70.19
2017-10-11T22:16:52.151Z,70.06
2017-10-11T22:19:19.740Z,70.27
2017-10-11T22:21:47.676Z,69.71
2017-10-11T22:24:15.268Z,69.64
2017-10-11T22:26:42.870Z,69.59
2017-10-11T22:29:10.530Z,69.83
2017-10-11T22:31:38.146Z,69.58
2017-10-11T22:34:05.785Z,69.66
2017-10-11T22:36:33.386Z,69.47
2017-10-11T22:39:00.985Z,69.83
2017-10-11T22:41:28.679Z,69.80
2017-10-11T22:43:56.288Z,69.91
2017-10-11T22:46:24.200Z,69.79
2017-10-11T22:48:51.803Z,70.08
2017-10-11T22:51:19.412Z,70.20
2017-10-11T22:53:47.033Z,70.06
2017-10-11T22:56:14.654Z,69.97
2017-10-11T22:58:42.622Z,70.06
2017-10-11T23:01:10.223Z,70.18
2017-10-11T23:03:37.833Z,70.13
2017-10-11T23:06:05.723Z,70.23
2017-10-11T23:08:33.317Z,70.17
2017-10-11T23:11:01.246Z,70.19
2017-10-11T23:13:28.856Z,70.43
2017-10-11T23:15:56.461Z,70.32
2017-10-11T23:18:24.097Z,70.70
2017-10-11T23:20:51.693Z,70.98
2017-10-11T23:23:19.342Z,70.94
2017-10-11T23:25:46.944Z,71.08
2017-10-11T23:28:14.549Z,71.46
2017-10-11T23:30:42.183Z,71.38
2017-10-11T23:33:09.784Z,71.57
2017-10-11T23:35:37.421Z,71.80
2017-10-11T23:38:05.009Z,72.23
2017-10-11T23:40:32.609Z,72.26
2017-10-11T23:43:00.225Z,72.55
2017-10-11T23:45:27.832Z,72.85
2017-10-11T23:47:55.501Z,72.77
2017-10-11T23:50:23.100Z,72.94
2017-10-11T23:52:50.717Z,72.96
2017-10-11T23:55:18.338Z,73.10
2017-10-11T23:57:45.942Z,72.94
